sensor_id;sensor_type;location;lat;lon;timestamp;temperature;humidity
42421;DHT22;28063;48.140;11.588;2023-03-31T00:02:04;8.40;99.90
42421;DHT22;28063;48.140;11.588;2023-03-31T00:04:41;8.40;99.90
42421;DHT22;28063;48.140;11.588;2023-03-31T00:07:14;8.40;99.90
42421;DHT22;28063;48.140;11.588;2023-03-31T00:09:41;8.40;99.90
42421;DHT22;28063;48.140;11.588;2023-03-31T00:12:11;8.40;99.90
42421;DHT22;28063;48.140;11.588;2023-03-31T00:14:38;8.40;99.90
42421;DHT22;28063;48.140;11.588;2023-03-31T00:17:03;8.30;99.90
42421;DHT22;28063;48.140;11.588;2023-03-31T00:19:29;8.40;99.90
42421;DHT22;28063;48.140;11.588;2023-03-31T00:21:58;8.40;99.90
42421;DHT22;28063;48.140;11.588;2023-03-31T00:24:28;8.50;99.90
42421;DHT22;28063;48.140;11.588;2023-03-31T00:27:04;8.50;99.90
42421;DHT22;28063;48.140;11.588;2023-03-31T00:29:30;8.50;99.90
42421;DHT22;28063;48.140;11.588;2023-03-31T00:31:58;8.60;99.90
42421;DHT22;28063;48.140;11.588;2023-03-31T00:34:25;8.60;99.90
42421;DHT22;28063;48.140;11.588;2023-03-31T00:36:50;8.60;99.90
42421;DHT22;28063;48.140;11.588;2023-03-31T00:39:21;8.70;99.90
42421;DHT22;28063;48.140;11.588;2023-03-31T00:41:48;8.80;99.90
42421;DHT22;28063;48.140;11.588;2023-03-31T00:44:16;8.80;99.90
42421;DHT22;28063;48.140;11.588;2023-03-31T00:49:28;8.90;99.90
42421;DHT22;28063;48.140;11.588;2023-03-31T00:51:59;8.90;99.90
42421;DHT22;28063;48.140;11.588;2023-03-31T00:54:27;8.90;99.90
42421;DHT22;28063;48.140;11.588;2023-03-31T00:56:55;9.00;99.90
42421;DHT22;28063;48.140;11.588;2023-03-31T00:59:26;9.00;99.90
42421;DHT22;28063;48.140;11.588;2023-03-31T01:01:53;9.00;99.90
42421;DHT22;28063;48.140;11.588;2023-03-31T01:04:23;9.10;99.90
42421;DHT22;28063;48.140;11.588;2023-03-31T01:07:02;9.10;99.90
42421;DHT22;28063;48.140;11.588;2023-03-31T01:09:30;9.10;99.90
42421;DHT22;28063;48.140;11.588;2023-03-31T01:12:04;9.10;99.90
42421;DHT22;28063;48.140;11.588;2023-03-31T01:14:30;9.10;99.90
42421;DHT22;28063;48.140;11.588;2023-03-31T01:16:57;9.20;99.90
42421;DHT22;28063;48.140;11.588;2023-03-31T01:19:40;9.20;99.90
42421;DHT22;28063;48.140;11.588;2023-03-31T01:22:38;9.20;99.90
42421;DHT22;28063;48.140;11.588;2023-03-31T01:27:58;9.20;99.90
42421;DHT22;28063;48.140;11.588;2023-03-31T01:38:54;9.10;99.90
42421;DHT22;28063;48.140;11.588;2023-03-31T01:46:57;8.90;99.90
42421;DHT22;28063;48.140;11.588;2023-03-31T01:55:49;9.10;99.90
42421;DHT22;28063;48.140;11.588;2023-03-31T01:58:23;9.10;99.90
42421;DHT22;28063;48.140;11.588;2023-03-31T02:00:58;9.20;99.90
42421;DHT22;28063;48.140;11.588;2023-03-31T02:03:32;9.30;99.90
42421;DHT22;28063;48.140;11.588;2023-03-31T02:06:13;9.30;99.90
42421;DHT22;28063;48.140;11.588;2023-03-31T02:08:45;9.30;99.90
42421;DHT22;28063;48.140;11.588;2023-03-31T02:11:13;9.30;99.90
42421;DHT22;28063;48.140;11.588;2023-03-31T02:13:40;9.30;99.90
42421;DHT22;28063;48.140;11.588;2023-03-31T02:16:12;9.30;99.90
42421;DHT22;28063;48.140;11.588;2023-03-31T02:18:44;9.30;99.90
42421;DHT22;28063;48.140;11.588;2023-03-31T02:21:11;9.30;99.90
42421;DHT22;28063;48.140;11.588;2023-03-31T02:23:42;9.30;99.90
42421;DHT22;28063;48.140;11.588;2023-03-31T02:26:24;9.30;99.90
42421;DHT22;28063;48.140;11.588;2023-03-31T02:28:51;9.30;99.90
42421;DHT22;28063;48.140;11.588;2023-03-31T02:31:28;9.30;99.90
42421;DHT22;28063;48.140;11.588;2023-03-31T02:33:56;9.40;99.90
42421;DHT22;28063;48.140;11.588;2023-03-31T02:36:23;9.40;99.90
42421;DHT22;28063;48.140;11.588;2023-03-31T02:38:56;9.40;99.90
42421;DHT22;28063;48.140;11.588;2023-03-31T02:41:23;9.40;99.90
42421;DHT22;28063;48.140;11.588;2023-03-31T02:43:49;9.40;99.90
42421;DHT22;28063;48.140;11.588;2023-03-31T02:46:14;9.40;99.90
42421;DHT22;28063;48.140;11.588;2023-03-31T02:48:49;9.40;99.90
42421;DHT22;28063;48.140;11.588;2023-03-31T02:53:58;9.50;99.90
42421;DHT22;28063;48.140;11.588;2023-03-31T03:02:30;9.40;99.90
42421;DHT22;28063;48.140;11.588;2023-03-31T03:05:23;9.40;99.90
42421;DHT22;28063;48.140;11.588;2023-03-31T03:08:22;9.40;99.90
42421;DHT22;28063;48.140;11.588;2023-03-31T03:11:16;9.30;99.90
42421;DHT22;28063;48.140;11.588;2023-03-31T03:13:51;9.30;99.90
42421;DHT22;28063;48.140;11.588;2023-03-31T03:16:39;9.40;99.90
42421;DHT22;28063;48.140;11.588;2023-03-31T03:19:06;9.40;99.90
42421;DHT22;28063;48.140;11.588;2023-03-31T03:21:33;9.40;99.90
42421;DHT22;28063;48.140;11.588;2023-03-31T03:23:59;9.40;99.90
42421;DHT22;28063;48.140;11.588;2023-03-31T03:26:26;9.40;99.90
42421;DHT22;28063;48.140;11.588;2023-03-31T03:28:56;9.40;99.90
42421;DHT22;28063;48.140;11.588;2023-03-31T03:31:22;9.40;99.90
42421;DHT22;28063;48.140;11.588;2023-03-31T03:33:51;9.40;99.90
42421;DHT22;28063;48.140;11.588;2023-03-31T03:36:18;9.30;99.90
42421;DHT22;28063;48.140;11.588;2023-03-31T03:38:44;9.30;99.90
42421;DHT22;28063;48.140;11.588;2023-03-31T03:41:09;9.20;99.90
42421;DHT22;28063;48.140;11.588;2023-03-31T03:43:35;9.20;99.90
42421;DHT22;28063;48.140;11.588;2023-03-31T03:46:01;9.20;99.90
42421;DHT22;28063;48.140;11.588;2023-03-31T03:48:27;9.10;99.90
42421;DHT22;28063;48.140;11.588;2023-03-31T03:50:52;9.10;99.90
42421;DHT22;28063;48.140;11.588;2023-03-31T03:53:19;9.10;99.90
42421;DHT22;28063;48.140;11.588;2023-03-31T03:55:45;9.10;99.90
42421;DHT22;28063;48.140;11.588;2023-03-31T03:58:15;9.10;99.90
42421;DHT22;28063;48.140;11.588;2023-03-31T04:00:41;9.10;99.90
42421;DHT22;28063;48.140;11.588;2023-03-31T04:03:07;9.10;99.90
42421;DHT22;28063;48.140;11.588;2023-03-31T04:05:33;9.10;99.90
42421;DHT22;28063;48.140;11.588;2023-03-31T04:07:58;9.10;99.90
42421;DHT22;28063;48.140;11.588;2023-03-31T04:10:24;9.10;99.90
42421;DHT22;28063;48.140;11.588;2023-03-31T04:12:50;9.10;99.90
42421;DHT22;28063;48.140;11.588;2023-03-31T04:15:16;9.10;99.90
42421;DHT22;28063;48.140;11.588;2023-03-31T04:17:41;9.10;99.90
42421;DHT22;28063;48.140;11.588;2023-03-31T04:20:13;9.10;99.90
42421;DHT22;28063;48.140;11.588;2023-03-31T04:22:39;9.10;99.90
42421;DHT22;28063;48.140;11.588;2023-03-31T04:25:09;9.10;99.90
42421;DHT22;28063;48.140;11.588;2023-03-31T04:27:40;9.20;99.90
42421;DHT22;28063;48.140;11.588;2023-03-31T04:30:15;9.20;99.90
42421;DHT22;28063;48.140;11.588;2023-03-31T04:32:48;9.20;99.90
42421;DHT22;28063;48.140;11.588;2023-03-31T04:35:19;9.20;99.90
42421;DHT22;28063;48.140;11.588;2023-03-31T04:37:48;9.20;99.90
42421;DHT22;28063;48.140;11.588;2023-03-31T04:40:15;9.30;99.90
42421;DHT22;28063;48.140;11.588;2023-03-31T04:42:42;9.20;99.90
42421;DHT22;28063;48.140;11.588;2023-03-31T04:45:09;9.20;99.90
42421;DHT22;28063;48.140;11.588;2023-03-31T04:47:35;9.10;99.90
42421;DHT22;28063;48.140;11.588;2023-03-31T04:50:01;9.10;99.90
42421;DHT22;28063;48.140;11.588;2023-03-31T04:52:27;9.10;99.90
42421;DHT22;28063;48.140;11.588;2023-03-31T04:54:53;9.10;99.90
42421;DHT22;28063;48.140;11.588;2023-03-31T04:57:18;9.10;99.90
42421;DHT22;28063;48.140;11.588;2023-03-31T04:59:44;9.10;99.90
42421;DHT22;28063;48.140;11.588;2023-03-31T05:02:10;9.10;99.90
42421;DHT22;28063;48.140;11.588;2023-03-31T05:04:36;9.10;99.90
42421;DHT22;28063;48.140;11.588;2023-03-31T05:07:02;9.00;99.90
42421;DHT22;28063;48.140;11.588;2023-03-31T05:09:28;9.00;99.90
42421;DHT22;28063;48.140;11.588;2023-03-31T05:11:54;8.90;99.90
42421;DHT22;28063;48.140;11.588;2023-03-31T05:14:19;8.90;99.90
42421;DHT22;28063;48.140;11.588;2023-03-31T05:16:45;8.90;99.90
42421;DHT22;28063;48.140;11.588;2023-03-31T05:19:11;8.80;99.90
42421;DHT22;28063;48.140;11.588;2023-03-31T05:21:37;8.80;99.90
42421;DHT22;28063;48.140;11.588;2023-03-31T05:24:02;8.70;99.90
42421;DHT22;28063;48.140;11.588;2023-03-31T05:26:29;8.70;99.90
42421;DHT22;28063;48.140;11.588;2023-03-31T05:28:55;8.70;99.90
42421;DHT22;28063;48.140;11.588;2023-03-31T05:31:21;8.70;99.90
42421;DHT22;28063;48.140;11.588;2023-03-31T05:33:47;8.70;99.90
42421;DHT22;28063;48.140;11.588;2023-03-31T05:36:15;8.70;99.90
42421;DHT22;28063;48.140;11.588;2023-03-31T05:38:41;8.70;99.90
42421;DHT22;28063;48.140;11.588;2023-03-31T05:41:07;8.70;99.90
42421;DHT22;28063;48.140;11.588;2023-03-31T05:43:34;8.80;99.90
42421;DHT22;28063;48.140;11.588;2023-03-31T05:46:01;8.80;99.90
42421;DHT22;28063;48.140;11.588;2023-03-31T05:48:27;8.80;99.90
42421;DHT22;28063;48.140;11.588;2023-03-31T05:50:59;8.90;99.90
42421;DHT22;28063;48.140;11.588;2023-03-31T05:53:26;9.00;99.90
42421;DHT22;28063;48.140;11.588;2023-03-31T05:56:01;9.10;99.90
42421;DHT22;28063;48.140;11.588;2023-03-31T05:58:28;9.30;99.90
42421;DHT22;28063;48.140;11.588;2023-03-31T06:01:05;9.30;99.90
42421;DHT22;28063;48.140;11.588;2023-03-31T06:03:36;9.40;99.90
42421;DHT22;28063;48.140;11.588;2023-03-31T06:06:03;9.50;99.90
42421;DHT22;28063;48.140;11.588;2023-03-31T06:08:33;9.60;99.90
42421;DHT22;28063;48.140;11.588;2023-03-31T06:10:59;9.60;99.90
42421;DHT22;28063;48.140;11.588;2023-03-31T06:13:28;9.80;99.90
42421;DHT22;28063;48.140;11.588;2023-03-31T06:15:55;10.10;99.90
42421;DHT22;28063;48.140;11.588;2023-03-31T06:18:20;10.30;99.90
42421;DHT22;28063;48.140;11.588;2023-03-31T06:20:46;10.30;99.90
42421;DHT22;28063;48.140;11.588;2023-03-31T06:23:12;10.30;99.90
42421;DHT22;28063;48.140;11.588;2023-03-31T06:25:38;10.30;99.90
42421;DHT22;28063;48.140;11.588;2023-03-31T06:28:03;10.30;99.90
42421;DHT22;28063;48.140;11.588;2023-03-31T06:30:31;10.30;99.90
42421;DHT22;28063;48.140;11.588;2023-03-31T06:32:56;10.30;99.90
42421;DHT22;28063;48.140;11.588;2023-03-31T06:35:22;10.30;99.90
42421;DHT22;28063;48.140;11.588;2023-03-31T06:37:47;10.30;99.90
42421;DHT22;28063;48.140;11.588;2023-03-31T06:40:13;10.40;99.90
42421;DHT22;28063;48.140;11.588;2023-03-31T06:42:39;10.40;99.90
42421;DHT22;28063;48.140;11.588;2023-03-31T06:45:06;10.50;99.90
42421;DHT22;28063;48.140;11.588;2023-03-31T06:47:32;10.60;99.90
42421;DHT22;28063;48.140;11.588;2023-03-31T06:49:58;10.60;99.90
42421;DHT22;28063;48.140;11.588;2023-03-31T06:52:24;10.70;99.90
42421;DHT22;28063;48.140;11.588;2023-03-31T06:54:49;10.80;99.90
42421;DHT22;28063;48.140;11.588;2023-03-31T06:57:15;10.90;99.90
42421;DHT22;28063;48.140;11.588;2023-03-31T06:59:41;10.90;99.90
42421;DHT22;28063;48.140;11.588;2023-03-31T07:02:09;10.90;99.90
42421;DHT22;28063;48.140;11.588;2023-03-31T07:04:35;10.90;99.90
42421;DHT22;28063;48.140;11.588;2023-03-31T07:07:03;10.80;99.90
42421;DHT22;28063;48.140;11.588;2023-03-31T07:09:29;10.70;99.90
42421;DHT22;28063;48.140;11.588;2023-03-31T07:11:56;10.60;99.90
42421;DHT22;28063;48.140;11.588;2023-03-31T07:14:21;10.60;99.90
42421;DHT22;28063;48.140;11.588;2023-03-31T07:16:47;10.40;99.90
42421;DHT22;28063;48.140;11.588;2023-03-31T07:19:15;10.30;99.90
42421;DHT22;28063;48.140;11.588;2023-03-31T07:21:43;10.20;99.90
42421;DHT22;28063;48.140;11.588;2023-03-31T07:24:10;10.00;99.90
42421;DHT22;28063;48.140;11.588;2023-03-31T07:26:36;9.90;99.90
42421;DHT22;28063;48.140;11.588;2023-03-31T07:29:01;9.80;99.90
42421;DHT22;28063;48.140;11.588;2023-03-31T07:31:27;9.80;99.90
42421;DHT22;28063;48.140;11.588;2023-03-31T07:33:53;9.70;99.90
42421;DHT22;28063;48.140;11.588;2023-03-31T07:36:19;9.70;99.90
42421;DHT22;28063;48.140;11.588;2023-03-31T07:38:48;9.70;99.90
42421;DHT22;28063;48.140;11.588;2023-03-31T07:41:18;9.70;99.90
42421;DHT22;28063;48.140;11.588;2023-03-31T07:43:46;9.70;99.90
42421;DHT22;28063;48.140;11.588;2023-03-31T07:46:22;9.80;99.90
42421;DHT22;28063;48.140;11.588;2023-03-31T07:48:51;9.80;99.90
42421;DHT22;28063;48.140;11.588;2023-03-31T07:51:20;9.90;99.90
42421;DHT22;28063;48.140;11.588;2023-03-31T07:53:47;9.90;99.90
42421;DHT22;28063;48.140;11.588;2023-03-31T07:56:18;9.80;99.90
42421;DHT22;28063;48.140;11.588;2023-03-31T07:58:44;9.80;99.90
42421;DHT22;28063;48.140;11.588;2023-03-31T08:01:16;9.90;99.90
42421;DHT22;28063;48.140;11.588;2023-03-31T08:03:43;10.00;99.90
42421;DHT22;28063;48.140;11.588;2023-03-31T08:06:09;10.10;99.90
42421;DHT22;28063;48.140;11.588;2023-03-31T08:08:34;10.30;99.90
42421;DHT22;28063;48.140;11.588;2023-03-31T08:11:03;10.50;99.90
42421;DHT22;28063;48.140;11.588;2023-03-31T08:13:29;10.80;99.90
42421;DHT22;28063;48.140;11.588;2023-03-31T08:15:55;11.10;99.90
42421;DHT22;28063;48.140;11.588;2023-03-31T08:18:21;11.30;99.90
42421;DHT22;28063;48.140;11.588;2023-03-31T08:20:46;11.50;99.90
42421;DHT22;28063;48.140;11.588;2023-03-31T08:23:14;11.50;99.90
42421;DHT22;28063;48.140;11.588;2023-03-31T08:25:41;11.40;99.90
42421;DHT22;28063;48.140;11.588;2023-03-31T08:28:07;11.20;99.90
42421;DHT22;28063;48.140;11.588;2023-03-31T08:30:39;11.10;99.90
42421;DHT22;28063;48.140;11.588;2023-03-31T08:33:05;11.10;99.90
42421;DHT22;28063;48.140;11.588;2023-03-31T08:35:33;11.00;99.90
42421;DHT22;28063;48.140;11.588;2023-03-31T08:37:59;11.00;99.90
42421;DHT22;28063;48.140;11.588;2023-03-31T08:40:26;11.10;99.90
42421;DHT22;28063;48.140;11.588;2023-03-31T08:42:59;11.10;99.90
42421;DHT22;28063;48.140;11.588;2023-03-31T08:45:34;11.20;99.90
42421;DHT22;28063;48.140;11.588;2023-03-31T08:48:07;11.20;99.90
42421;DHT22;28063;48.140;11.588;2023-03-31T08:50:41;11.10;99.90
42421;DHT22;28063;48.140;11.588;2023-03-31T08:53:21;11.00;99.90
42421;DHT22;28063;48.140;11.588;2023-03-31T08:55:51;10.90;99.90
42421;DHT22;28063;48.140;11.588;2023-03-31T09:06:35;11.10;99.90
42421;DHT22;28063;48.140;11.588;2023-03-31T09:09:05;11.30;99.90
42421;DHT22;28063;48.140;11.588;2023-03-31T09:17:25;11.90;99.70
42421;DHT22;28063;48.140;11.588;2023-03-31T09:25:47;12.30;97.90
42421;DHT22;28063;48.140;11.588;2023-03-31T09:28:20;12.60;97.60
42421;DHT22;28063;48.140;11.588;2023-03-31T09:30:47;13.00;96.70
42421;DHT22;28063;48.140;11.588;2023-03-31T09:33:27;13.40;95.90
42421;DHT22;28063;48.140;11.588;2023-03-31T09:36:12;13.90;94.50
42421;DHT22;28063;48.140;11.588;2023-03-31T09:38:41;14.30;93.70
42421;DHT22;28063;48.140;11.588;2023-03-31T09:41:07;14.50;92.60
42421;DHT22;28063;48.140;11.588;2023-03-31T09:43:33;14.60;91.90
42421;DHT22;28063;48.140;11.588;2023-03-31T09:46:29;14.70;91.80
42421;DHT22;28063;48.140;11.588;2023-03-31T09:49:00;15.00;90.10
42421;DHT22;28063;48.140;11.588;2023-03-31T09:51:31;15.40;89.10
42421;DHT22;28063;48.140;11.588;2023-03-31T09:54:01;15.50;87.20
42421;DHT22;28063;48.140;11.588;2023-03-31T09:59:02;15.20;86.70
42421;DHT22;28063;48.140;11.588;2023-03-31T10:01:28;14.90;88.00
42421;DHT22;28063;48.140;11.588;2023-03-31T10:03:54;14.70;88.30
42421;DHT22;28063;48.140;11.588;2023-03-31T10:06:22;14.80;89.00
42421;DHT22;28063;48.140;11.588;2023-03-31T10:08:55;15.10;88.70
42421;DHT22;28063;48.140;11.588;2023-03-31T10:11:22;15.20;87.70
42421;DHT22;28063;48.140;11.588;2023-03-31T10:14:13;15.30;87.20
42421;DHT22;28063;48.140;11.588;2023-03-31T10:16:56;15.20;86.00
42421;DHT22;28063;48.140;11.588;2023-03-31T10:19:27;15.50;85.50
42421;DHT22;28063;48.140;11.588;2023-03-31T10:22:00;15.80;83.50
42421;DHT22;28063;48.140;11.588;2023-03-31T10:24:36;16.10;82.20
42421;DHT22;28063;48.140;11.588;2023-03-31T10:27:05;16.20;81.20
42421;DHT22;28063;48.140;11.588;2023-03-31T10:29:32;15.90;81.60
42421;DHT22;28063;48.140;11.588;2023-03-31T10:32:13;15.60;82.70
42421;DHT22;28063;48.140;11.588;2023-03-31T10:34:41;15.40;84.20
42421;DHT22;28063;48.140;11.588;2023-03-31T10:37:13;15.50;85.90
42421;DHT22;28063;48.140;11.588;2023-03-31T10:39:39;16.10;84.70
42421;DHT22;28063;48.140;11.588;2023-03-31T10:42:05;16.50;82.40
42421;DHT22;28063;48.140;11.588;2023-03-31T10:44:37;16.80;81.30
42421;DHT22;28063;48.140;11.588;2023-03-31T10:49:42;17.20;78.70
42421;DHT22;28063;48.140;11.588;2023-03-31T10:52:22;17.60;77.70
42421;DHT22;28063;48.140;11.588;2023-03-31T10:54:56;17.60;76.60
42421;DHT22;28063;48.140;11.588;2023-03-31T10:57:55;17.40;75.50
42421;DHT22;28063;48.140;11.588;2023-03-31T11:00:38;17.20;75.50
42421;DHT22;28063;48.140;11.588;2023-03-31T11:05:54;17.20;76.10
42421;DHT22;28063;48.140;11.588;2023-03-31T11:08:45;17.30;75.40
42421;DHT22;28063;48.140;11.588;2023-03-31T11:27:20;14.50;83.70
42421;DHT22;28063;48.140;11.588;2023-03-31T11:30:12;14.20;85.20
42421;DHT22;28063;48.140;11.588;2023-03-31T11:41:33;11.40;93.10
42421;DHT22;28063;48.140;11.588;2023-03-31T11:44:09;11.30;94.30
42421;DHT22;28063;48.140;11.588;2023-03-31T11:46:43;11.30;94.50
42421;DHT22;28063;48.140;11.588;2023-03-31T11:51:55;11.70;94.30
42421;DHT22;28063;48.140;11.588;2023-03-31T11:54:33;12.00;94.10
42421;DHT22;28063;48.140;11.588;2023-03-31T11:57:08;12.20;93.70
42421;DHT22;28063;48.140;11.588;2023-03-31T11:59:36;12.40;93.50
42421;DHT22;28063;48.140;11.588;2023-03-31T12:02:13;12.50;93.20
42421;DHT22;28063;48.140;11.588;2023-03-31T12:04:44;12.60;92.80
42421;DHT22;28063;48.140;11.588;2023-03-31T12:07:19;12.80;92.60
42421;DHT22;28063;48.140;11.588;2023-03-31T12:15:45;13.80;90.20
42421;DHT22;28063;48.140;11.588;2023-03-31T12:18:16;14.20;89.00
42421;DHT22;28063;48.140;11.588;2023-03-31T12:20:56;14.60;88.10
42421;DHT22;28063;48.140;11.588;2023-03-31T12:23:42;15.10;85.90
42421;DHT22;28063;48.140;11.588;2023-03-31T12:28:43;15.60;81.80
42421;DHT22;28063;48.140;11.588;2023-03-31T12:31:17;15.40;80.60
42421;DHT22;28063;48.140;11.588;2023-03-31T12:34:11;15.20;81.10
42421;DHT22;28063;48.140;11.588;2023-03-31T12:45:27;15.10;80.30
42421;DHT22;28063;48.140;11.588;2023-03-31T12:56:09;14.60;81.30
42421;DHT22;28063;48.140;11.588;2023-03-31T12:58:40;14.50;82.00
42421;DHT22;28063;48.140;11.588;2023-03-31T13:01:21;14.50;82.20
42421;DHT22;28063;48.140;11.588;2023-03-31T13:03:49;14.80;82.00
42421;DHT22;28063;48.140;11.588;2023-03-31T13:08:58;15.60;78.50
42421;DHT22;28063;48.140;11.588;2023-03-31T13:16:36;15.10;70.70
42421;DHT22;28063;48.140;11.588;2023-03-31T13:19:03;14.90;67.70
42421;DHT22;28063;48.140;11.588;2023-03-31T13:21:51;14.60;66.20
42421;DHT22;28063;48.140;11.588;2023-03-31T13:24:21;14.40;64.30
42421;DHT22;28063;48.140;11.588;2023-03-31T13:26:48;14.30;64.80
42421;DHT22;28063;48.140;11.588;2023-03-31T13:32:06;14.10;66.10
42421;DHT22;28063;48.140;11.588;2023-03-31T13:48:27;15.00;65.80
42421;DHT22;28063;48.140;11.588;2023-03-31T13:51:17;15.90;63.60
42421;DHT22;28063;48.140;11.588;2023-03-31T14:02:35;15.70;62.40
42421;DHT22;28063;48.140;11.588;2023-03-31T14:07:57;15.50;61.20
42421;DHT22;28063;48.140;11.588;2023-03-31T14:10:33;15.30;61.50
42421;DHT22;28063;48.140;11.588;2023-03-31T14:13:13;15.20;62.20
42421;DHT22;28063;48.140;11.588;2023-03-31T14:15:49;15.10;62.60
42421;DHT22;28063;48.140;11.588;2023-03-31T14:18:26;14.80;63.50
42421;DHT22;28063;48.140;11.588;2023-03-31T14:21:39;14.70;63.70
42421;DHT22;28063;48.140;11.588;2023-03-31T14:24:22;14.50;65.00
42421;DHT22;28063;48.140;11.588;2023-03-31T14:29:40;14.00;67.30
42421;DHT22;28063;48.140;11.588;2023-03-31T14:37:54;13.80;68.90
42421;DHT22;28063;48.140;11.588;2023-03-31T14:40:21;13.50;69.80
42421;DHT22;28063;48.140;11.588;2023-03-31T14:42:47;13.30;71.00
42421;DHT22;28063;48.140;11.588;2023-03-31T14:45:21;13.10;72.60
42421;DHT22;28063;48.140;11.588;2023-03-31T14:48:07;12.90;76.40
42421;DHT22;28063;48.140;11.588;2023-03-31T14:50:34;11.90;79.50
42421;DHT22;28063;48.140;11.588;2023-03-31T14:53:00;11.10;83.00
42421;DHT22;28063;48.140;11.588;2023-03-31T14:55:28;10.70;85.40
42421;DHT22;28063;48.140;11.588;2023-03-31T14:57:58;10.40;86.10
42421;DHT22;28063;48.140;11.588;2023-03-31T15:00:27;10.30;86.70
42421;DHT22;28063;48.140;11.588;2023-03-31T15:02:54;10.20;87.80
42421;DHT22;28063;48.140;11.588;2023-03-31T15:05:28;10.00;89.70
42421;DHT22;28063;48.140;11.588;2023-03-31T15:07:59;9.90;89.90
42421;DHT22;28063;48.140;11.588;2023-03-31T15:10:32;10.00;89.80
42421;DHT22;28063;48.140;11.588;2023-03-31T15:13:01;10.60;90.00
42421;DHT22;28063;48.140;11.588;2023-03-31T15:15:32;11.60;90.80
42421;DHT22;28063;48.140;11.588;2023-03-31T15:17:58;12.40;89.10
42421;DHT22;28063;48.140;11.588;2023-03-31T15:22:49;12.80;81.20
42421;DHT22;28063;48.140;11.588;2023-03-31T15:25:16;12.80;80.80
42421;DHT22;28063;48.140;11.588;2023-03-31T15:27:48;13.00;79.50
42421;DHT22;28063;48.140;11.588;2023-03-31T15:30:22;13.20;78.20
42421;DHT22;28063;48.140;11.588;2023-03-31T15:32:48;13.20;77.60
42421;DHT22;28063;48.140;11.588;2023-03-31T15:35:23;13.30;76.40
42421;DHT22;28063;48.140;11.588;2023-03-31T15:37:51;13.30;74.50
42421;DHT22;28063;48.140;11.588;2023-03-31T15:40:36;13.20;73.90
42421;DHT22;28063;48.140;11.588;2023-03-31T15:45:45;12.90;74.00
42421;DHT22;28063;48.140;11.588;2023-03-31T15:50:45;12.40;75.00
42421;DHT22;28063;48.140;11.588;2023-03-31T15:53:28;12.30;76.00
42421;DHT22;28063;48.140;11.588;2023-03-31T15:55:54;12.20;76.60
42421;DHT22;28063;48.140;11.588;2023-03-31T15:58:23;12.30;76.90
42421;DHT22;28063;48.140;11.588;2023-03-31T16:01:09;12.40;76.80
42421;DHT22;28063;48.140;11.588;2023-03-31T16:03:35;12.50;76.60
42421;DHT22;28063;48.140;11.588;2023-03-31T16:09:00;12.60;76.40
42421;DHT22;28063;48.140;11.588;2023-03-31T16:11:43;12.70;75.10
42421;DHT22;28063;48.140;11.588;2023-03-31T16:14:19;12.90;74.70
42421;DHT22;28063;48.140;11.588;2023-03-31T16:16:53;13.00;74.40
42421;DHT22;28063;48.140;11.588;2023-03-31T16:19:24;13.20;73.90
42421;DHT22;28063;48.140;11.588;2023-03-31T16:21:53;13.40;71.70
42421;DHT22;28063;48.140;11.588;2023-03-31T16:24:21;13.40;71.50
42421;DHT22;28063;48.140;11.588;2023-03-31T16:27:00;13.40;71.70
42421;DHT22;28063;48.140;11.588;2023-03-31T16:29:31;13.30;71.00
42421;DHT22;28063;48.140;11.588;2023-03-31T16:32:26;13.20;71.00
42421;DHT22;28063;48.140;11.588;2023-03-31T16:34:59;13.10;71.20
42421;DHT22;28063;48.140;11.588;2023-03-31T16:37:25;12.90;71.70
42421;DHT22;28063;48.140;11.588;2023-03-31T16:39:53;12.70;72.40
42421;DHT22;28063;48.140;11.588;2023-03-31T16:42:19;12.50;73.10
42421;DHT22;28063;48.140;11.588;2023-03-31T16:44:45;12.40;73.30
42421;DHT22;28063;48.140;11.588;2023-03-31T16:47:14;12.20;74.50
42421;DHT22;28063;48.140;11.588;2023-03-31T16:49:40;12.10;74.70
42421;DHT22;28063;48.140;11.588;2023-03-31T16:52:06;12.00;75.10
42421;DHT22;28063;48.140;11.588;2023-03-31T16:54:34;11.90;75.40
42421;DHT22;28063;48.140;11.588;2023-03-31T16:57:00;11.90;75.70
42421;DHT22;28063;48.140;11.588;2023-03-31T16:59:26;11.80;75.90
42421;DHT22;28063;48.140;11.588;2023-03-31T17:01:52;11.80;76.80
42421;DHT22;28063;48.140;11.588;2023-03-31T17:04:17;11.60;80.00
42421;DHT22;28063;48.140;11.588;2023-03-31T17:06:45;11.10;81.70
42421;DHT22;28063;48.140;11.588;2023-03-31T17:09:10;10.70;84.70
42421;DHT22;28063;48.140;11.588;2023-03-31T17:11:36;10.20;87.90
42421;DHT22;28063;48.140;11.588;2023-03-31T17:14:02;9.80;90.10
42421;DHT22;28063;48.140;11.588;2023-03-31T17:16:29;9.50;91.50
42421;DHT22;28063;48.140;11.588;2023-03-31T17:18:55;9.30;92.50
42421;DHT22;28063;48.140;11.588;2023-03-31T17:21:21;9.10;93.50
42421;DHT22;28063;48.140;11.588;2023-03-31T17:23:48;9.00;94.80
42421;DHT22;28063;48.140;11.588;2023-03-31T17:26:15;8.90;95.70
42421;DHT22;28063;48.140;11.588;2023-03-31T17:28:41;8.90;96.40
42421;DHT22;28063;48.140;11.588;2023-03-31T17:31:14;8.80;96.80
42421;DHT22;28063;48.140;11.588;2023-03-31T17:33:40;8.80;97.50
42421;DHT22;28063;48.140;11.588;2023-03-31T17:36:06;8.80;97.70
42421;DHT22;28063;48.140;11.588;2023-03-31T17:38:32;8.80;97.90
42421;DHT22;28063;48.140;11.588;2023-03-31T17:41:06;8.70;98.10
42421;DHT22;28063;48.140;11.588;2023-03-31T17:43:33;8.70;98.40
42421;DHT22;28063;48.140;11.588;2023-03-31T17:46:07;8.60;98.60
42421;DHT22;28063;48.140;11.588;2023-03-31T17:48:35;8.60;98.90
42421;DHT22;28063;48.140;11.588;2023-03-31T17:51:10;8.50;99.20
42421;DHT22;28063;48.140;11.588;2023-03-31T17:53:38;8.50;99.50
42421;DHT22;28063;48.140;11.588;2023-03-31T17:56:04;8.50;99.60
42421;DHT22;28063;48.140;11.588;2023-03-31T17:58:30;8.60;99.40
42421;DHT22;28063;48.140;11.588;2023-03-31T18:00:57;8.60;99.40
42421;DHT22;28063;48.140;11.588;2023-03-31T18:03:23;8.60;99.30
42421;DHT22;28063;48.140;11.588;2023-03-31T18:05:51;8.60;99.20
42421;DHT22;28063;48.140;11.588;2023-03-31T18:08:17;8.60;98.90
42421;DHT22;28063;48.140;11.588;2023-03-31T18:10:43;8.70;98.90
42421;DHT22;28063;48.140;11.588;2023-03-31T18:13:09;8.70;98.80
42421;DHT22;28063;48.140;11.588;2023-03-31T18:15:35;8.70;98.80
42421;DHT22;28063;48.140;11.588;2023-03-31T18:18:02;8.70;98.40
42421;DHT22;28063;48.140;11.588;2023-03-31T18:20:28;8.70;98.10
42421;DHT22;28063;48.140;11.588;2023-03-31T18:22:54;8.70;97.90
42421;DHT22;28063;48.140;11.588;2023-03-31T18:25:20;8.70;97.60
42421;DHT22;28063;48.140;11.588;2023-03-31T18:27:46;8.70;97.40
42421;DHT22;28063;48.140;11.588;2023-03-31T18:30:13;8.60;97.10
42421;DHT22;28063;48.140;11.588;2023-03-31T18:32:41;8.60;97.00